Time;durP1;ratioP1;P1;durP2;ratioP2;P2;SDS_P1;SDS_P2;PMS_P1;PMS_P2;Temp;Humidity;BMP_temperature;BMP_pressure;BME280_temperature;BME280_humidity;BME280_pressure;Samples;Min_cycle;Max_cycle;Signal;HPM_P1;HPM_P2
2023/03/08 00:00:26;;;;;;;5.77;3.13;;;1.30;1.00;;;3.39;100.00;94232.19;5030863;28;20221;-66
2023/03/08 00:02:55;;;;;;;6.83;3.33;;;1.20;1.00;;;3.29;100.00;94216.28;5027414;28;20216;-67
2023/03/08 00:05:22;;;;;;;10.03;4.00;;;1.20;1.00;;;3.22;100.00;94234.13;5032953;28;20656;-66
2023/03/08 00:07:52;;;;;;;6.03;3.33;;;1.10;1.00;;;3.12;100.00;94221.66;5031355;28;20760;-67
2023/03/08 00:10:19;;;;;;;5.97;3.27;;;1.00;1.00;;;3.10;100.00;94221.09;5032597;28;20564;-67
2023/03/08 00:12:47;;;;;;;10.53;3.57;;;0.90;1.00;;;3.07;100.00;94221.59;5031897;28;20628;-66
2023/03/08 00:15:14;;;;;;;6.27;3.80;;;0.90;1.00;;;3.03;100.00;94225.75;5031496;28;20222;-67
2023/03/08 00:17:41;;;;;;;7.50;4.20;;;0.80;1.00;;;2.91;100.00;94235.63;5029267;28;20215;-66
2023/03/08 00:20:11;;;;;;;6.80;3.07;;;0.80;1.00;;;2.79;100.00;94231.53;5034092;28;20212;-67
2023/03/08 00:22:38;;;;;;;7.40;3.50;;;0.70;1.00;;;2.80;100.00;94228.63;5028518;28;21781;-66
2023/03/08 00:25:08;;;;;;;6.93;3.67;;;0.70;1.00;;;2.79;100.00;94229.69;5027749;28;20240;-66
2023/03/08 00:27:36;;;;;;;7.30;3.80;;;0.60;1.00;;;2.78;100.00;94241.25;5029183;28;20668;-66
2023/03/08 00:30:06;;;;;;;9.23;3.57;;;0.60;1.00;;;2.75;100.00;94243.59;5030748;28;20264;-66
2023/03/08 00:32:33;;;;;;;6.13;3.73;;;0.60;1.00;;;2.81;100.00;94253.13;5031456;28;20260;-66
2023/03/08 00:34:59;;;;;;;8.97;4.93;;;0.70;1.00;;;2.94;100.00;94242.22;5031288;28;20645;-66
2023/03/08 00:37:26;;;;;;;7.47;4.27;;;0.70;1.00;;;2.98;100.00;94238.06;5019249;28;20207;-66
2023/03/08 00:39:54;;;;;;;7.70;4.13;;;0.70;1.00;;;2.96;100.00;94227.78;5030300;28;20214;-66
2023/03/08 00:42:22;;;;;;;14.57;4.93;;;0.80;1.00;;;2.96;100.00;94211.97;5030297;28;20210;-67
2023/03/08 00:44:49;;;;;;;7.27;4.27;;;0.80;1.00;;;2.93;100.00;94220.38;5031226;28;20216;-66
2023/03/08 00:47:17;;;;;;;8.13;4.40;;;0.70;1.00;;;2.93;100.00;94220.38;5028065;28;20697;-67
2023/03/08 00:49:45;;;;;;;8.70;4.77;;;0.70;1.00;;;2.82;100.00;94228.41;5030390;28;20240;-66
2023/03/08 00:52:12;;;;;;;9.63;3.43;;;0.70;1.00;;;2.72;100.00;94230.91;5028392;28;20234;-66
2023/03/08 00:54:39;;;;;;;8.43;4.17;;;0.60;1.00;;;2.68;100.00;94224.53;5030129;28;20281;-66
2023/03/08 00:57:06;;;;;;;7.53;4.03;;;0.50;1.00;;;2.71;100.00;94232.75;5030570;28;20209;-66
2023/03/08 00:59:32;;;;;;;7.47;4.10;;;0.50;1.00;;;2.74;100.00;94227.00;5030378;28;20199;-66
2023/03/08 01:02:00;;;;;;;8.23;4.13;;;0.50;1.00;;;2.73;100.00;94224.59;5029017;28;20203;-66
2023/03/08 01:04:28;;;;;;;9.07;5.20;;;0.50;1.00;;;2.80;100.00;94217.31;5032700;28;20264;-67
2023/03/08 01:06:55;;;;;;;10.23;5.30;;;0.50;1.00;;;2.68;100.00;94209.53;5027123;28;20206;-66
2023/03/08 01:09:22;;;;;;;10.83;5.77;;;0.60;1.00;;;2.66;100.00;94209.00;5029849;28;20242;-66
2023/03/08 01:11:49;;;;;;;9.10;4.73;;;0.60;1.00;;;2.69;100.00;94200.59;5029377;28;20257;-66
2023/03/08 01:14:15;;;;;;;11.90;5.90;;;0.60;1.00;;;2.67;100.00;94192.19;5029085;28;20207;-66
2023/03/08 01:16:42;;;;;;;9.50;4.77;;;0.60;1.00;;;2.60;100.00;94191.53;5027395;28;20256;-67
2023/03/08 01:19:10;;;;;;;8.57;5.30;;;0.60;1.00;;;2.60;100.00;94177.59;5023194;28;20203;-66
2023/03/08 01:21:38;;;;;;;10.73;5.80;;;0.50;1.00;;;2.52;100.00;94173.56;5028881;28;20216;-66
2023/03/08 01:24:06;;;;;;;11.27;5.60;;;0.50;1.00;;;2.44;100.00;94173.22;5030394;28;20704;-66
2023/03/08 01:26:33;;;;;;;10.63;5.27;;;0.40;1.00;;;2.43;100.00;94176.84;5028672;28;20213;-66
2023/03/08 01:29:00;;;;;;;11.60;5.77;;;0.30;1.00;;;2.42;100.00;94170.00;5024355;28;20243;-66
2023/03/08 01:31:29;;;;;;;12.13;6.43;;;0.30;1.00;;;2.29;100.00;94168.53;5035257;28;20210;-67
2023/03/08 01:33:56;;;;;;;10.63;5.50;;;0.30;1.00;;;2.27;100.00;94167.97;5028197;28;20620;-67
2023/03/08 01:36:26;;;;;;;12.53;5.93;;;0.20;1.00;;;2.31;100.00;94161.22;5027930;28;20215;-66
2023/03/08 01:38:54;;;;;;;11.37;6.03;;;0.20;1.00;;;2.22;100.00;94160.03;5028950;28;20203;-66
2023/03/08 01:41:25;;;;;;;13.43;6.13;;;0.20;1.00;;;2.20;100.00;94146.31;5028544;28;20641;-66
2023/03/08 01:43:53;;;;;;;11.87;5.93;;;0.10;1.00;;;2.15;100.00;94143.66;5028917;28;20248;-66
2023/03/08 01:46:28;;;;;;;11.63;6.13;;;0.10;1.00;;;2.12;100.00;94140.69;5028239;28;20215;-66
2023/03/08 01:49:04;;;;;;;11.73;6.87;;;0.00;1.00;;;2.14;100.00;94136.78;5029108;28;20702;-67
2023/03/08 01:51:36;;;;;;;13.40;6.53;;;0.00;1.00;;;2.07;100.00;94136.16;5028749;28;20210;-67
2023/03/08 01:54:09;;;;;;;12.87;6.20;;;0.00;1.00;;;1.98;100.00;94127.09;5030449;28;20289;-66
2023/03/08 01:56:39;;;;;;;9.43;5.30;;;-0.10;1.00;;;1.92;100.00;94122.81;5028198;28;20603;-66
2023/03/08 01:59:07;;;;;;;10.47;5.37;;;-0.10;1.00;;;1.84;100.00;94130.31;5030464;28;20208;-67
2023/03/08 02:01:34;;;;;;;11.07;6.03;;;-0.20;1.00;;;1.82;100.00;94121.88;5024317;28;20549;-66
2023/03/08 02:04:02;;;;;;;14.10;6.10;;;-0.20;1.00;;;1.74;100.00;94124.94;5027647;28;20253;-67
2023/03/08 02:06:29;;;;;;;10.70;5.80;;;-0.20;1.00;;;1.72;100.00;94130.41;5028268;28;20206;-66
2023/03/08 02:08:56;;;;;;;13.40;6.87;;;-0.30;1.00;;;1.95;100.00;94130.22;5031295;28;20248;-66
2023/03/08 02:11:25;;;;;;;12.10;5.93;;;-0.30;1.00;;;1.87;100.00;94125.38;5029424;28;20433;-66
2023/03/08 02:13:53;;;;;;;10.60;5.40;;;-0.20;1.00;;;2.07;100.00;94120.38;5029650;28;20683;-66
2023/03/08 02:16:21;;;;;;;11.53;6.17;;;-0.20;1.00;;;2.01;100.00;94113.47;5028299;28;20210;-66
2023/03/08 02:18:54;;;;;;;13.40;6.87;;;-0.20;1.00;;;2.10;100.00;94112.03;5029881;28;20210;-66
2023/03/08 02:21:21;;;;;;;11.20;6.17;;;-0.10;1.00;;;2.24;100.00;94105.34;5027396;28;20272;-66
2023/03/08 02:23:50;;;;;;;11.90;6.40;;;-0.10;1.00;;;2.12;100.00;94111.75;5026616;28;20272;-66
2023/03/08 02:26:17;;;;;;;12.50;6.67;;;-0.10;1.00;;;2.33;100.00;94105.72;5027234;28;20660;-67
2023/03/08 02:28:44;;;;;;;12.33;6.30;;;0.00;1.00;;;2.18;100.00;94103.69;5030243;28;20230;-66
2023/03/08 02:31:11;;;;;;;9.57;5.43;;;0.00;1.00;;;2.41;100.00;94103.47;5025238;28;20218;-67
2023/03/08 02:33:37;;;;;;;11.73;6.10;;;0.10;1.00;;;2.49;100.00;94087.22;5034296;28;20202;-67
2023/03/08 02:36:07;;;;;;;14.07;7.63;;;0.10;1.00;;;2.57;100.00;94092.06;5029942;28;20214;-66
2023/03/08 02:38:35;;;;;;;13.03;6.87;;;0.10;1.00;;;2.43;100.00;94084.78;5029850;28;20530;-66
2023/03/08 02:41:03;;;;;;;15.53;6.80;;;0.10;1.00;;;2.39;100.00;94084.50;5032751;28;20269;-66
2023/03/08 02:43:30;;;;;;;14.53;6.77;;;0.30;1.00;;;2.48;100.00;94077.75;5031748;28;20273;-66
2023/03/08 02:45:57;;;;;;;12.67;6.20;;;0.20;1.00;;;2.64;100.00;94071.59;5028911;28;20265;-66
2023/03/08 02:48:24;;;;;;;12.07;6.03;;;0.30;1.00;;;2.39;100.00;94071.34;5031789;28;20231;-66
2023/03/08 02:50:50;;;;;;;12.17;6.70;;;0.30;1.00;;;2.67;100.00;94070.31;5033011;28;20218;-67
2023/03/08 02:53:17;;;;;;;14.93;6.57;;;0.30;1.00;;;2.75;100.00;94062.78;5029178;28;20214;-66
2023/03/08 02:55:44;;;;;;;14.27;7.13;;;0.40;1.00;;;2.59;100.00;94057.63;5033000;28;20599;-67
2023/03/08 02:58:12;;;;;;;12.77;6.50;;;0.40;1.00;;;2.65;100.00;94051.38;5026887;28;20254;-66
2023/03/08 03:00:39;;;;;;;17.07;7.20;;;0.40;1.00;;;2.60;100.00;94036.31;5032428;28;20220;-67
2023/03/08 03:03:06;;;;;;;11.50;6.40;;;0.40;1.00;;;2.48;100.00;94027.78;5031096;28;20272;-66
2023/03/08 03:05:33;;;;;;;11.53;6.50;;;0.40;1.00;;;2.46;100.00;94034.31;5034522;28;20206;-66
2023/03/08 03:08:00;;;;;;;11.83;6.67;;;0.40;1.00;;;2.74;100.00;94021.72;5030052;28;20215;-67
2023/03/08 03:10:27;;;;;;;11.20;6.20;;;0.40;1.00;;;2.52;100.00;94014.91;5031040;28;20215;-66
2023/03/08 03:12:54;;;;;;;10.37;5.73;;;0.40;1.00;;;2.50;100.00;94012.53;5029799;28;20633;-66
2023/03/08 03:15:22;;;;;;;13.30;6.27;;;0.40;1.00;;;2.56;100.00;94003.66;5025295;28;20893;-66
2023/03/08 03:17:49;;;;;;;12.70;6.43;;;0.30;1.00;;;2.39;100.00;94015.31;5028514;28;20207;-66
2023/03/08 03:20:16;;;;;;;14.20;6.70;;;0.30;1.00;;;2.41;100.00;94003.53;5034527;28;20214;-66
2023/03/08 03:22:43;;;;;;;12.57;6.17;;;0.30;1.00;;;2.39;100.00;94002.94;5028498;28;20286;-67
2023/03/08 03:25:10;;;;;;;13.07;6.23;;;0.30;1.00;;;2.39;100.00;93991.66;5033094;28;20728;-67
2023/03/08 03:27:37;;;;;;;15.13;6.67;;;0.30;1.00;;;2.32;100.00;93983.97;5030756;28;20214;-66
2023/03/08 03:30:07;;;;;;;12.83;6.77;;;0.30;1.00;;;2.35;100.00;93980.03;5032411;28;20257;-66
2023/03/08 03:32:35;;;;;;;10.30;6.17;;;0.30;1.00;;;2.38;100.00;93972.44;5029658;28;20482;-66
2023/03/08 03:35:02;;;;;;;10.27;5.83;;;0.30;1.00;;;2.31;100.00;93969.22;5032745;28;20257;-66
2023/03/08 03:37:29;;;;;;;12.10;5.77;;;0.30;1.00;;;2.39;100.00;93955.59;5029862;28;20211;-66
2023/03/08 03:39:56;;;;;;;12.13;5.97;;;0.30;1.00;;;2.37;100.00;93970.84;5028240;28;20210;-66
2023/03/08 03:42:22;;;;;;;12.83;6.57;;;0.30;1.00;;;2.39;100.00;93975.88;5029693;28;20210;-67
2023/03/08 03:44:49;;;;;;;10.40;6.03;;;0.30;1.00;;;2.35;100.00;93969.53;5030766;28;20268;-66
2023/03/08 03:47:16;;;;;;;11.33;5.53;;;0.20;1.00;;;2.39;100.00;93974.03;5029974;28;20271;-66
2023/03/08 03:49:44;;;;;;;11.97;5.97;;;0.20;1.00;;;2.35;100.00;93964.25;5032322;28;20224;-66
2023/03/08 03:52:11;;;;;;;10.37;6.20;;;0.10;1.00;;;2.25;100.00;93964.16;5030522;28;20214;-67
2023/03/08 03:54:38;;;;;;;11.23;5.87;;;0.10;1.00;;;2.23;100.00;93959.13;5031729;28;20210;-66
2023/03/08 03:57:05;;;;;;;13.30;6.80;;;0.10;1.00;;;2.40;100.00;93949.31;5030907;28;21864;-66
2023/03/08 03:59:32;;;;;;;9.20;5.50;;;0.20;1.00;;;2.64;100.00;93953.19;5032118;28;20272;-67
2023/03/08 04:01:59;;;;;;;11.00;5.70;;;0.10;1.00;;;2.44;100.00;93958.28;5029863;28;20206;-66
2023/03/08 04:04:26;;;;;;;11.97;5.90;;;0.20;1.00;;;2.52;100.00;93951.78;5031284;28;20213;-67
2023/03/08 04:06:55;;;;;;;9.63;5.77;;;0.20;1.00;;;2.33;100.00;93951.34;5026326;28;20657;-66
2023/03/08 04:09:21;;;;;;;10.17;6.30;;;0.20;1.00;;;2.37;100.00;93947.19;5026373;28;20226;-66
2023/03/08 04:11:48;;;;;;;11.70;5.63;;;0.30;1.00;;;2.36;100.00;93948.22;5030303;28;20668;-66
2023/03/08 04:14:16;;;;;;;14.67;5.63;;;0.20;1.00;;;2.38;100.00;93951.41;5033348;28;20649;-66
2023/03/08 04:16:42;;;;;;;17.23;5.50;;;0.20;1.00;;;2.32;100.00;93939.25;5029443;28;20218;-66
2023/03/08 04:19:12;;;;;;;10.83;5.67;;;0.20;1.00;;;2.38;100.00;93943.50;5031093;28;20206;-66
2023/03/08 04:21:39;;;;;;;10.17;5.70;;;0.20;1.00;;;2.37;100.00;93960.34;5026420;28;20851;-66
2023/03/08 04:24:08;;;;;;;9.50;5.10;;;0.20;1.00;;;2.37;100.00;93964.78;5030885;28;20681;-66
2023/03/08 04:26:36;;;;;;;11.10;5.60;;;0.20;1.00;;;2.41;100.00;93950.91;5029511;28;20214;-66
2023/03/08 04:29:05;;;;;;;13.03;6.00;;;0.20;1.00;;;2.43;100.00;93934.84;5028501;28;20221;-66
2023/03/08 04:31:34;;;;;;;11.83;6.23;;;0.20;1.00;;;2.62;100.00;93923.72;5029307;28;20214;-66
2023/03/08 04:34:01;;;;;;;12.47;6.00;;;0.20;1.00;;;2.41;100.00;93923.81;5029976;28;20938;-66
2023/03/08 04:36:29;;;;;;;8.77;5.50;;;0.20;1.00;;;2.42;100.00;93917.50;5028821;28;20245;-66
2023/03/08 04:38:55;;;;;;;11.60;6.50;;;0.20;1.00;;;2.49;100.00;93912.84;5029211;28;20202;-66
2023/03/08 04:41:23;;;;;;;12.17;5.83;;;0.20;1.00;;;2.48;100.00;93917.28;5031646;28;20213;-66
2023/03/08 04:43:53;;;;;;;12.53;5.87;;;0.30;1.00;;;2.36;100.00;93908.78;5032964;28;20657;-66
2023/03/08 04:46:23;;;;;;;12.83;6.03;;;0.30;1.00;;;2.51;100.00;93908.91;5025085;28;20207;-66
2023/03/08 04:48:52;;;;;;;9.00;5.13;;;0.30;1.00;;;2.57;100.00;93897.38;5033836;28;20226;-66
2023/03/08 04:51:22;;;;;;;12.50;5.80;;;0.30;1.00;;;2.64;100.00;93891.91;5026494;28;20246;-66
2023/03/08 04:53:49;;;;;;;9.50;5.30;;;0.30;1.00;;;2.56;100.00;93890.53;5024826;28;20232;-66
2023/03/08 04:56:17;;;;;;;10.77;5.43;;;0.30;1.00;;;2.57;100.00;93905.28;5029561;28;20218;-66
2023/03/08 04:58:45;;;;;;;11.03;5.80;;;0.30;1.00;;;2.62;100.00;93899.25;5029459;28;20211;-67
2023/03/08 05:01:15;;;;;;;9.17;5.10;;;0.30;1.00;;;2.61;100.00;93895.84;5031442;28;20271;-67
2023/03/08 05:03:42;;;;;;;9.70;5.00;;;0.40;1.00;;;2.52;100.00;93894.72;5030273;28;20206;-67
2023/03/08 05:06:10;;;;;;;12.97;6.10;;;0.30;1.00;;;2.61;100.00;93881.88;5026358;28;20198;-67
2023/03/08 05:08:37;;;;;;;13.60;5.63;;;0.40;1.00;;;2.63;100.00;93885.03;5030874;28;20644;-67
2023/03/08 05:11:04;;;;;;;11.40;5.97;;;0.40;1.00;;;2.66;100.00;93890.63;5027501;28;20238;-66
2023/03/08 05:13:34;;;;;;;11.83;6.00;;;0.40;1.00;;;2.73;100.00;93879.84;5028741;28;20336;-67
2023/03/08 05:16:02;;;;;;;10.10;5.60;;;0.50;1.00;;;2.78;100.00;93879.88;5027795;28;20208;-67
2023/03/08 05:18:29;;;;;;;12.47;5.53;;;0.50;1.00;;;2.77;100.00;93862.50;5028340;28;20210;-67
2023/03/08 05:20:58;;;;;;;9.57;5.80;;;0.50;1.00;;;2.82;100.00;93865.19;5029190;28;20219;-66
2023/03/08 05:23:26;;;;;;;11.80;6.23;;;0.50;1.00;;;2.80;100.00;93859.38;5028080;28;20723;-66
2023/03/08 05:25:54;;;;;;;9.50;5.37;;;0.60;1.00;;;2.85;100.00;93854.94;5030211;28;20703;-67
2023/03/08 05:28:21;;;;;;;9.53;5.73;;;0.60;1.00;;;2.82;100.00;93855.44;5024522;28;20210;-67
2023/03/08 05:30:48;;;;;;;11.03;5.67;;;0.70;1.00;;;2.84;100.00;93848.09;5026348;28;20646;-67
2023/03/08 05:33:17;;;;;;;11.03;5.90;;;0.70;1.00;;;2.89;100.00;93845.47;5031384;28;20206;-66
2023/03/08 05:35:44;;;;;;;10.63;5.50;;;0.70;1.00;;;2.95;100.00;93839.19;5027863;28;20210;-67
2023/03/08 05:38:11;;;;;;;9.50;5.43;;;0.70;1.00;;;2.90;100.00;93831.28;5028683;28;20264;-67
2023/03/08 05:40:38;;;;;;;8.30;5.13;;;0.70;1.00;;;2.97;100.00;93837.13;5027060;28;20617;-66
2023/03/08 05:43:05;;;;;;;10.73;5.07;;;0.70;1.00;;;2.96;100.00;93832.09;5025987;28;20261;-66
2023/03/08 05:45:31;;;;;;;12.30;5.73;;;0.80;1.00;;;2.93;100.00;93835.22;5024807;28;20641;-66
2023/03/08 05:47:58;;;;;;;9.50;5.37;;;0.80;1.00;;;2.95;100.00;93841.81;5020741;28;20212;-66
2023/03/08 05:50:27;;;;;;;9.93;4.63;;;0.80;1.00;;;3.02;100.00;93833.69;5027188;28;20291;-66
2023/03/08 05:52:53;;;;;;;9.10;5.10;;;0.80;1.00;;;2.96;100.00;93827.59;5019541;28;20249;-66
2023/03/08 05:55:21;;;;;;;8.30;5.43;;;0.80;1.00;;;3.00;100.00;93831.31;5025636;28;20211;-66
2023/03/08 05:57:47;;;;;;;11.73;5.70;;;0.80;1.00;;;2.95;100.00;93827.88;5027746;28;21304;-66
2023/03/08 06:00:16;;;;;;;8.67;5.20;;;0.80;1.00;;;2.92;100.00;93828.38;5024117;28;20245;-66
2023/03/08 06:02:43;;;;;;;9.03;5.23;;;0.80;1.00;;;2.92;100.00;93829.19;5023142;28;20257;-66
2023/03/08 06:05:09;;;;;;;10.27;5.13;;;0.80;1.00;;;2.96;100.00;93817.06;5027286;28;20214;-66
2023/03/08 06:07:38;;;;;;;12.73;5.90;;;0.90;1.00;;;3.07;100.00;93815.31;5031071;28;20212;-65
2023/03/08 06:10:06;;;;;;;9.17;5.37;;;0.90;1.00;;;3.11;100.00;93801.34;5024906;28;20231;-65
2023/03/08 06:12:33;;;;;;;7.57;4.87;;;0.90;1.00;;;3.09;100.00;93805.28;5036839;28;20212;-65
2023/03/08 06:15:00;;;;;;;9.93;5.27;;;0.90;1.00;;;3.03;100.00;93806.31;5024906;28;20226;-65
2023/03/08 06:17:27;;;;;;;11.73;5.03;;;1.00;1.00;;;3.15;100.00;93810.31;5037286;28;20206;-65
2023/03/08 06:19:53;;;;;;;9.90;5.47;;;1.00;1.00;;;3.16;100.00;93809.28;5028809;28;20214;-65
2023/03/08 06:22:20;;;;;;;10.63;5.47;;;1.00;1.00;;;3.14;100.00;93800.03;5035108;28;20707;-74
2023/03/08 06:24:48;;;;;;;12.90;5.37;;;1.00;1.00;;;3.13;100.00;93794.00;5029149;28;20716;-64
2023/03/08 06:27:16;;;;;;;9.13;5.20;;;1.00;1.00;;;3.24;100.00;93800.88;5034914;28;20206;-65
2023/03/08 06:29:43;;;;;;;9.00;5.07;;;1.00;1.00;;;3.23;100.00;93788.78;5030531;28;20230;-67
2023/03/08 06:32:10;;;;;;;11.40;4.43;;;1.10;1.00;;;3.39;100.00;93792.22;5031621;28;20265;-66
2023/03/08 06:34:37;;;;;;;8.50;5.17;;;;;;;3.56;100.00;93780.44;5033531;28;20668;-68
2023/03/08 06:37:04;;;;;;;7.17;4.13;;;1.40;1.00;;;3.81;100.00;93769.94;5037587;28;20713;-65
2023/03/08 06:39:31;;;;;;;8.83;4.30;;;1.60;1.00;;;3.74;100.00;93782.59;5031907;28;20589;-65
2023/03/08 06:42:01;;;;;;;7.43;4.43;;;1.60;1.00;;;3.76;100.00;93775.19;5027283;28;20672;-65
2023/03/08 06:44:28;;;;;;;7.67;4.60;;;1.60;1.00;;;3.71;100.00;93771.78;5031648;28;20603;-65
2023/03/08 06:46:55;;;;;;;8.60;4.70;;;1.60;1.00;;;3.73;100.00;93775.72;5034164;28;20653;-65
2023/03/08 06:49:22;;;;;;;8.83;4.57;;;1.60;1.00;;;3.67;100.00;93770.72;5033633;28;20207;-65
2023/03/08 06:51:49;;;;;;;7.07;4.37;;;1.50;1.00;;;3.78;100.00;93772.31;5029155;28;20216;-65
2023/03/08 06:54:17;;;;;;;7.43;4.23;;;1.60;1.00;;;3.81;100.00;93775.19;5034447;28;20226;-65
2023/03/08 06:56:44;;;;;;;9.50;4.57;;;1.60;1.00;;;3.88;100.00;93775.75;5027409;28;20565;-65
2023/03/08 06:59:13;;;;;;;7.50;3.90;;;1.60;1.00;;;3.70;100.00;93770.97;5037542;28;20224;-65
2023/03/08 07:01:41;;;;;;;6.80;4.30;;;1.60;1.00;;;3.76;100.00;93762.00;5031604;28;20254;-65
2023/03/08 07:04:08;;;;;;;7.77;4.60;;;1.50;1.00;;;3.82;100.00;93758.31;5033891;28;20214;-65
2023/03/08 07:06:35;;;;;;;10.00;5.07;;;1.60;1.00;;;3.72;100.00;93750.41;5031580;28;20211;-65
2023/03/08 07:09:02;;;;;;;7.33;4.60;;;1.50;1.00;;;3.71;100.00;93737.50;5033116;28;20269;-65
2023/03/08 07:11:31;;;;;;;8.60;5.07;;;1.50;1.00;;;3.71;100.00;93740.16;5026991;28;20231;-65
2023/03/08 07:13:58;;;;;;;9.00;5.03;;;1.50;1.00;;;3.76;100.00;93740.16;5038106;28;20211;-65
2023/03/08 07:16:27;;;;;;;11.40;5.60;;;1.50;1.00;;;3.82;100.00;93734.59;5035742;28;20207;-66
2023/03/08 07:18:55;;;;;;;9.80;5.17;;;1.60;1.00;;;3.86;100.00;93740.16;5033745;28;20629;-65
2023/03/08 07:21:23;;;;;;;11.20;6.00;;;1.60;1.00;;;3.91;100.00;93729.63;5031716;28;20215;-65
2023/03/08 07:23:52;;;;;;;8.53;4.83;;;1.70;1.00;;;3.80;100.00;93720.09;5035815;28;20236;-65
2023/03/08 07:26:19;;;;;;;9.93;5.83;;;1.60;1.00;;;3.86;100.00;93717.19;5031345;28;20208;-65
2023/03/08 07:28:50;;;;;;;9.77;6.13;;;1.60;1.00;;;3.82;100.00;93718.00;5033984;28;20220;-65
2023/03/08 07:31:17;;;;;;;11.87;6.63;;;1.60;1.00;;;3.82;100.00;93712.75;5030847;28;20231;-65
2023/03/08 07:33:45;;;;;;;10.00;6.17;;;1.60;1.00;;;3.72;100.00;93713.50;5033738;28;20557;-65
2023/03/08 07:36:12;;;;;;;11.70;6.47;;;1.60;1.00;;;3.84;100.00;93708.78;5031241;28;20253;-65
2023/03/08 07:38:39;;;;;;;13.97;6.60;;;1.60;1.00;;;3.92;100.00;93697.69;5034502;28;20215;-65
2023/03/08 07:41:06;;;;;;;9.87;6.27;;;1.60;1.00;;;3.91;100.00;93696.13;5029647;28;20651;-65
2023/03/08 07:43:32;;;;;;;10.67;6.20;;;1.70;1.00;;;3.93;100.00;93686.13;5035921;28;20628;-65
2023/03/08 07:46:02;;;;;;;10.20;6.00;;;1.60;1.00;;;3.84;100.00;93685.06;5030319;28;20734;-65
2023/03/08 07:48:29;;;;;;;11.27;6.33;;;1.50;1.00;;;3.92;100.00;93678.47;5032753;28;20630;-65
2023/03/08 07:51:03;;;;;;;9.83;6.27;;;1.60;1.00;;;3.93;100.00;93672.13;5030988;28;20223;-65
2023/03/08 07:53:30;;;;;;;10.50;6.13;;;1.60;1.00;;;3.99;100.00;93661.31;5033124;28;20306;-65
2023/03/08 07:55:58;;;;;;;12.63;6.57;;;1.60;1.00;;;4.01;100.00;93648.66;5022948;28;20216;-65
2023/03/08 07:58:26;;;;;;;9.03;5.20;;;1.70;1.00;;;4.06;100.00;93643.38;5030728;28;20303;-70
2023/03/08 08:00:52;;;;;;;9.77;6.00;;;1.80;1.00;;;4.22;100.00;93630.94;5031064;28;20281;-70
2023/03/08 08:03:19;;;;;;;10.43;6.10;;;1.90;1.00;;;4.30;100.00;93628.53;5030255;28;20309;-70
2023/03/08 08:05:46;;;;;;;10.07;6.27;;;1.90;1.00;;;4.39;100.00;93626.94;5028800;28;20212;-67
2023/03/08 08:08:14;;;;;;;11.53;5.73;;;2.00;1.00;;;4.39;100.00;93632.22;5030659;28;20216;-68
2023/03/08 08:10:42;;;;;;;10.10;5.70;;;2.00;1.00;;;4.38;100.00;93625.38;5031431;28;20236;-68
2023/03/08 08:13:09;;;;;;;10.07;6.17;;;2.10;1.00;;;4.38;100.00;93617.44;5032095;28;20263;-68
2023/03/08 08:15:36;;;;;;;11.27;5.90;;;2.10;1.00;;;4.46;100.00;93619.50;5031131;28;21225;-68
2023/03/08 08:18:03;;;;;;;9.67;5.87;;;2.00;1.00;;;4.40;100.00;93612.69;5030280;28;20274;-68
2023/03/08 08:20:30;;;;;;;10.17;6.10;;;2.00;1.00;;;4.23;100.00;93608.78;5029394;28;20203;-67
2023/03/08 08:22:56;;;;;;;10.53;5.77;;;1.90;1.00;;;4.40;100.00;93596.03;5032085;28;20295;-67
2023/03/08 08:25:24;;;;;;;11.30;5.90;;;1.90;1.00;;;4.15;100.00;93596.13;5030879;28;20262;-67
2023/03/08 08:27:52;;;;;;;13.13;6.40;;;1.90;1.00;;;4.37;100.00;93591.31;5027344;28;20201;-68
2023/03/08 08:30:19;;;;;;;10.20;5.80;;;1.90;1.00;;;4.36;100.00;93589.75;5030286;28;20279;-68
2023/03/08 08:32:46;;;;;;;12.27;6.37;;;2.00;1.00;;;4.40;100.00;93596.03;5029435;28;20219;-67
2023/03/08 08:35:12;;;;;;;9.50;6.10;;;2.00;1.00;;;4.28;100.00;93588.47;5029250;28;20618;-67
2023/03/08 08:37:39;;;;;;;10.70;6.00;;;2.00;1.00;;;4.57;100.00;93578.81;5032095;28;20267;-68
2023/03/08 08:40:09;;;;;;;9.60;6.13;;;2.10;1.00;;;4.62;100.00;93575.38;5029340;28;20208;-67
2023/03/08 08:42:37;;;;;;;9.97;5.83;;;2.10;1.00;;;4.86;100.00;93578.91;5039308;28;20258;-68
2023/03/08 08:45:05;;;;;;;10.23;6.47;;;2.30;1.00;;;4.75;100.00;93570.28;5028071;28;20279;-67
2023/03/08 08:47:32;;;;;;;10.80;5.87;;;2.30;1.00;;;4.87;100.00;93575.25;5034862;28;20213;-68
2023/03/08 08:49:58;;;;;;;9.57;5.90;;;2.30;1.00;;;5.17;100.00;93565.25;5029179;28;20580;-67
2023/03/08 08:52:25;;;;;;;8.80;5.90;;;2.30;1.00;;;4.67;100.00;93565.56;5030742;28;20216;-70
2023/03/08 08:54:52;;;;;;;9.43;6.13;;;2.20;1.00;;;4.69;100.00;93560.81;5037703;28;20352;-69
2023/03/08 08:57:19;;;;;;;10.87;6.50;;;2.20;1.00;;;4.59;100.00;93555.59;5025141;28;20216;-68
2023/03/08 08:59:48;;;;;;;9.47;5.60;;;2.20;1.00;;;5.06;100.00;93542.63;5030531;28;20753;-68
2023/03/08 09:02:14;;;;;;;10.17;5.97;;;2.20;1.00;;;4.66;100.00;93555.28;5031970;28;20622;-69
2023/03/08 09:04:41;;;;;;;10.97;6.03;;;2.30;1.00;;;4.58;100.00;93551.34;5031676;28;20266;-68
2023/03/08 09:07:08;;;;;;;10.07;6.17;;;2.30;1.00;;;4.95;100.00;93546.41;5032552;28;20573;-68
2023/03/08 09:09:35;;;;;;;10.97;6.57;;;2.30;1.00;;;4.91;100.00;93550.66;5031172;28;20221;-69
2023/03/08 09:12:02;;;;;;;11.43;6.50;;;2.30;1.00;;;5.13;100.00;93545.72;5034029;28;20236;-68
2023/03/08 09:14:28;;;;;;;10.23;6.13;;;2.20;1.00;;;5.27;100.00;93548.53;5030603;28;20215;-68
2023/03/08 09:16:56;;;;;;;12.13;7.20;;;2.30;1.00;;;4.84;100.00;93538.81;5029726;28;20563;-68
2023/03/08 09:19:23;;;;;;;12.27;6.97;;;2.20;1.00;;;4.63;100.00;93534.72;5023478;28;20275;-68
2023/03/08 09:21:50;;;;;;;14.43;7.17;;;2.10;1.00;;;4.35;100.00;93540.66;5030292;28;20207;-68
2023/03/08 09:24:17;;;;;;;12.10;6.60;;;2.10;1.00;;;4.34;100.00;93521.41;5035824;28;20267;-67
2023/03/08 09:26:44;;;;;;;10.53;6.83;;;2.10;1.00;;;4.95;100.00;93530.56;5030438;28;20216;-68
2023/03/08 09:29:11;;;;;;;12.13;7.30;;;2.10;1.00;;;5.12;100.00;93528.31;5036318;28;20220;-68
2023/03/08 09:31:41;;;;;;;13.03;7.13;;;2.20;1.00;;;5.25;100.00;93506.56;5029391;28;20227;-64
2023/03/08 09:34:13;;;;;;;11.43;7.13;;;2.40;1.00;;;4.99;100.00;93505.19;5026277;28;20652;-75
2023/03/08 09:36:40;;;;;;;14.77;7.93;;;2.60;1.00;;;5.20;100.00;93497.88;5032220;28;20209;-67
2023/03/08 09:39:08;;;;;;;13.77;7.43;;;2.80;1.00;;;5.49;100.00;93498.66;5027794;28;20212;-67
2023/03/08 09:41:48;;;;;;;12.23;7.03;;;2.90;1.00;;;5.63;100.00;93505.66;5030226;28;20770;-68
2023/03/08 09:44:47;;;;;;;12.77;7.40;;;3.10;1.00;;;5.97;100.00;93508.22;5032271;28;20217;-68
2023/03/08 09:47:28;;;;;;;13.87;7.47;;;3.40;1.00;;;6.35;100.00;93494.81;5026483;28;20264;-67
2023/03/08 09:50:04;;;;;;;11.67;6.60;;;3.60;1.00;;;6.38;100.00;93494.25;5027197;28;20667;-69
2023/03/08 09:52:38;;;;;;;12.93;6.50;;;3.80;1.00;;;6.45;100.00;93489.38;5028524;28;20206;-71
2023/03/08 09:55:14;;;;;;;12.50;6.10;;;4.00;1.00;;;6.65;100.00;93485.69;5029682;28;20531;-64
2023/03/08 09:57:48;;;;;;;9.10;5.77;;;4.00;1.00;;;6.92;100.00;93477.84;5028183;28;20245;-64
2023/03/08 10:00:22;;;;;;;9.90;5.07;;;4.10;1.00;;;6.94;100.00;93481.00;5028274;28;20264;-65
2023/03/08 10:03:03;;;;;;;5.73;4.10;;;4.10;1.00;;;6.74;100.00;93476.78;5025282;28;20259;-65
2023/03/08 10:05:38;;;;;;;6.47;4.53;;;4.20;1.00;;;6.63;100.00;93474.56;5028825;28;20213;-64
2023/03/08 10:08:13;;;;;;;9.43;4.47;;;4.20;1.00;;;6.60;100.00;93460.03;5028360;28;20210;-64
2023/03/08 10:10:49;;;;;;;5.23;3.10;;;4.30;1.00;;;6.78;100.00;93461.13;5030648;28;20230;-64
2023/03/08 10:13:30;;;;;;;3.93;2.20;;;4.40;1.00;;;6.73;100.00;93456.69;5029502;28;20221;-73
2023/03/08 10:16:06;;;;;;;3.10;1.63;;;4.50;1.00;;;6.74;100.00;93450.31;5029014;28;20249;-65
2023/03/08 10:18:42;;;;;;;2.70;1.90;;;4.60;1.00;;;6.88;100.00;93456.47;5027908;28;20220;-64
2023/03/08 10:21:16;;;;;;;2.40;1.70;;;4.70;1.00;;;7.09;100.00;93448.97;5032646;28;20738;-73
2023/03/08 10:23:46;;;;;;;1.60;1.40;;;4.90;1.00;;;7.34;100.00;93445.91;5027138;28;20239;-77
2023/03/08 10:26:16;;;;;;;4.50;1.70;;;5.10;1.00;;;7.95;100.00;93433.88;5029992;28;20268;-74
2023/03/08 10:28:43;;;;;;;2.90;1.60;;;5.20;1.00;;;7.72;100.00;93434.06;5029311;28;20553;-71
2023/03/08 10:31:22;;;;;;;1.27;1.10;;;5.40;1.00;;;7.95;100.00;93427.78;5029833;28;20234;-72